Time;durP1;ratioP1;P1;durP2;ratioP2;P2;SDS_P1;SDS_P2;PMS_P1;PMS_P2;Temp;Humidity;BMP_temperature;BMP_pressure;BME280_temperature;BME280_humidity;BME280_pressure;Samples;Min_cycle;Max_cycle;Signal;HPM_P1;HPM_P2
2021/12/05 00:22:22;;;;;;;22.30;12.40;;;;;;;-5.32;84.08;98716.22;4970549;28;20047;-81
2021/12/05 00:24:54;;;;;;;20.70;12.13;;;;;;;-5.29;84.12;98717.72;4970149;28;20102;-80
2021/12/05 00:27:27;;;;;;;22.70;12.25;;;;;;;-5.28;84.05;98730.72;4954535;28;20202;-81
2021/12/05 00:30:08;;;;;;;22.63;12.68;;;;;;;-5.29;84.42;98717.72;4969673;28;20055;-84
2021/12/05 00:57:24;;;;;;;26.13;14.82;;;;;;;-5.19;85.09;98722.91;4983999;28;20053;-80
2021/12/05 01:15:41;;;;;;;31.27;15.85;;;;;;;-5.14;85.89;98702.22;5016689;28;20050;-82
2021/12/05 01:18:13;;;;;;;26.05;15.68;;;;;;;-5.13;86.12;98699.44;5034619;28;20132;-81
2021/12/05 01:20:51;;;;;;;31.90;16.55;;;;;;;-5.11;86.25;98700.13;5034554;28;20073;-81
2021/12/05 01:26:03;;;;;;;26.60;14.73;;;;;;;-5.06;86.32;98702.31;5022435;28;20412;-81
2021/12/05 01:36:31;;;;;;;31.50;15.90;;;;;;;-5.04;86.36;98710.84;5016202;28;20460;-80
2021/12/05 01:44:49;;;;;;;34.40;17.02;;;;;;;-4.96;86.36;98713.56;5016042;28;20045;-82
2021/12/05 02:09:36;;;;;;;28.17;15.95;;;;;;;-4.75;86.82;98704.50;5015998;28;20046;-81
2021/12/05 02:12:24;;;;;;;28.80;15.30;;;;;;;-4.83;87.01;98703.47;5015714;28;20057;-81
2021/12/05 02:15:19;;;;;;;31.13;15.65;;;;;;;-4.74;87.17;98706.97;5033423;28;20140;-81
2021/12/05 02:32:21;;;;;;;30.40;15.23;;;;;;;-4.57;87.38;98715.81;5015126;28;20045;-81
2021/12/05 02:39:46;;;;;;;31.60;17.15;;;;;;;-4.52;87.40;98710.91;5014896;28;20052;-81
2021/12/05 02:45:06;;;;;;;34.55;18.63;;;;;;;-4.53;87.28;98714.53;5014957;28;20531;-82
2021/12/05 02:47:34;;;;;;;39.47;18.10;;;;;;;-4.50;87.59;98711.59;5014674;28;20057;-81
2021/12/05 02:50:06;;;;;;;32.47;16.52;;;;;;;-4.48;87.46;98704.34;4982566;28;20114;-80
2021/12/05 02:52:38;;;;;;;29.60;16.88;;;;;;;-4.50;87.48;98702.84;5032130;28;20053;-81
2021/12/05 02:55:31;;;;;;;30.48;15.93;;;;;;;-4.57;87.56;98708.72;5014928;28;20628;-82
2021/12/05 02:58:03;;;;;;;32.38;16.20;;;;;;;-4.55;87.72;98705.97;5018513;28;20061;-80
2021/12/05 03:00:42;;;;;;;33.17;16.63;;;;;;;-4.52;87.93;98703.00;5013131;28;20053;-81
2021/12/05 03:03:22;;;;;;;27.48;15.80;;;;;;;-4.48;87.99;98701.72;5014754;28;20496;-81
2021/12/05 03:05:55;;;;;;;25.27;15.07;;;;;;;-4.50;88.05;98703.69;5032485;28;20103;-80
2021/12/05 03:08:23;;;;;;;27.92;14.15;;;;;;;-4.53;88.02;98698.72;5025327;28;20041;-81
2021/12/05 03:10:52;;;;;;;27.85;17.00;;;;;;;-4.47;87.89;98702.53;5032425;28;20122;-81
2021/12/05 03:13:19;;;;;;;33.08;17.95;;;;;;;-4.48;87.92;98701.72;5018159;28;20117;-81
2021/12/05 03:15:48;;;;;;;33.97;18.65;;;;;;;-4.50;88.06;98698.41;5018551;28;20059;-81
2021/12/05 03:18:16;;;;;;;33.58;17.42;;;;;;;-4.48;88.06;98714.03;5033745;28;20049;-81
2021/12/05 03:20:44;;;;;;;32.75;15.73;;;;;;;-4.50;88.30;98702.84;5035339;28;20051;-82
2021/12/05 03:23:11;;;;;;;30.10;17.90;;;;;;;-4.53;88.26;98709.25;5052519;28;20049;-81
2021/12/05 03:25:38;;;;;;;29.75;16.13;;;;;;;-4.53;88.39;98703.16;5051755;28;20508;-81
2021/12/05 03:28:07;;;;;;;30.67;16.92;;;;;;;-4.50;88.49;98708.94;5034260;28;20055;-81
2021/12/05 03:30:35;;;;;;;30.67;16.73;;;;;;;-4.51;88.60;98702.00;5033802;28;20045;-81
2021/12/05 03:33:15;;;;;;;28.38;15.40;;;;;;;-4.64;88.60;98698.97;5033956;28;20241;-80
2021/12/05 03:35:42;;;;;;;28.15;16.52;;;;;;;-4.56;88.63;98712.19;5002333;28;20136;-80
2021/12/05 03:38:10;;;;;;;31.40;17.15;;;;;;;-4.54;88.82;98714.69;5034149;28;20152;-82
2021/12/05 03:40:38;;;;;;;33.38;18.63;;;;;;;-4.55;88.75;98710.41;5018011;28;20056;-80
2021/12/05 03:43:11;;;;;;;27.45;14.73;;;;;;;-4.55;88.87;98723.56;5051656;28;20048;-81
2021/12/05 03:45:42;;;;;;;31.83;16.02;;;;;;;-4.51;88.86;98722.25;5032861;28;20057;-81
2021/12/05 03:48:12;;;;;;;31.30;16.88;;;;;;;-4.50;88.93;98735.28;5035668;28;20140;-80
2021/12/05 03:50:40;;;;;;;28.27;16.35;;;;;;;-4.49;88.86;98731.66;5051365;28;20499;-81
2021/12/05 03:53:09;;;;;;;30.17;16.88;;;;;;;-4.42;88.65;98737.97;5033571;28;20091;-81
2021/12/05 03:55:39;;;;;;;33.08;16.95;;;;;;;-4.41;88.23;98734.34;5051407;28;20060;-82
2021/12/05 03:58:07;;;;;;;33.10;18.13;;;;;;;-4.41;88.35;98736.97;5033670;28;20477;-81
2021/12/05 04:00:38;;;;;;;35.45;17.67;;;;;;;-4.49;88.37;98731.66;5049551;28;20148;-81
2021/12/05 04:03:09;;;;;;;26.25;15.40;;;;;;;-4.55;88.64;98737.56;5028970;28;20076;-80
2021/12/05 04:05:37;;;;;;;26.95;15.07;;;;;;;-4.56;88.68;98735.88;5029752;28;20057;-81
2021/12/05 04:08:10;;;;;;;28.05;14.00;;;;;;;-4.57;88.64;98742.16;5030123;28;20254;-80
2021/12/05 04:10:41;;;;;;;29.83;17.42;;;;;;;-4.59;88.54;98742.28;5033254;28;20059;-81
2021/12/05 04:13:11;;;;;;;30.67;17.48;;;;;;;-4.61;88.73;98741.66;5033542;28;20045;-81
2021/12/05 04:15:38;;;;;;;31.10;16.80;;;;;;;-4.61;88.83;98744.28;5032486;28;20415;-81
2021/12/05 04:18:06;;;;;;;31.55;16.75;;;;;;;-4.52;89.12;98742.50;5033435;28;20496;-81
2021/12/05 04:20:34;;;;;;;32.42;17.38;;;;;;;-4.47;88.76;98742.88;5033108;28;20052;-81
2021/12/05 04:23:04;;;;;;;35.85;17.42;;;;;;;-4.40;88.76;98741.28;5050063;28;20069;-80
2021/12/05 04:25:36;;;;;;;24.25;14.13;;;;;;;-4.41;88.61;98744.06;5051239;28;20056;-82
2021/12/05 04:28:09;;;;;;;36.53;17.63;;;;;;;-4.45;88.53;98738.28;5033417;28;20421;-79
2021/12/05 04:30:36;;;;;;;31.33;17.60;;;;;;;-4.45;88.66;98746.19;5033430;28;20045;-81
2021/12/05 04:33:04;;;;;;;26.92;14.93;;;;;;;-4.43;88.65;98749.50;5043147;28;20064;-81
2021/12/05 04:35:33;;;;;;;23.20;12.45;;;;;;;-4.41;88.63;98755.41;5036770;28;20053;-81
2021/12/05 04:38:00;;;;;;;31.75;18.02;;;;;;;-4.42;88.55;98758.22;5035281;28;20049;-81
2021/12/05 04:40:29;;;;;;;29.83;16.50;;;;;;;-4.44;88.68;98754.91;5050921;28;20061;-81
2021/12/05 04:42:57;;;;;;;30.38;17.65;;;;;;;-4.41;88.50;98757.22;5017116;28;20072;-81
2021/12/05 04:45:29;;;;;;;32.50;19.02;;;;;;;-4.39;88.76;98761.38;5032904;28;20572;-81
2021/12/05 04:48:01;;;;;;;30.30;15.00;;;;;;;-4.36;88.79;98757.59;5033268;28;20135;-81
2021/12/05 04:50:30;;;;;;;29.45;16.60;;;;;;;-4.31;88.64;98759.75;5032954;28;20140;-81
2021/12/05 04:52:57;;;;;;;33.08;18.92;;;;;;;-4.32;88.24;98769.47;5042334;28;20052;-84
2021/12/05 04:55:26;;;;;;;32.67;17.90;;;;;;;-4.37;88.27;98761.22;5022119;28;20479;-84
2021/12/05 04:57:55;;;;;;;32.60;18.75;;;;;;;-4.31;88.39;98770.31;5045452;28;20053;-85
2021/12/05 05:00:30;;;;;;;33.03;16.88;;;;;;;-4.29;88.36;98763.91;5030254;28;20144;-85
2021/12/05 05:02:58;;;;;;;28.63;14.98;;;;;;;-4.30;88.26;98769.31;5024452;28;20134;-84
2021/12/05 05:05:28;;;;;;;28.05;15.50;;;;;;;-4.31;88.15;98762.41;5031789;28;20058;-85
2021/12/05 05:07:55;;;;;;;21.45;12.75;;;;;;;-4.31;88.15;98765.84;5031788;28;20042;-85
2021/12/05 05:10:26;;;;;;;31.92;18.13;;;;;;;-4.29;88.07;98768.34;5031487;28;20049;-82
2021/12/05 05:12:55;;;;;;;27.55;16.05;;;;;;;-4.31;88.09;98762.41;5013121;28;20080;-82
2021/12/05 05:15:26;;;;;;;27.83;13.80;;;;;;;-4.31;88.17;98767.66;5037550;28;20051;-82
2021/12/05 05:17:54;;;;;;;34.08;18.63;;;;;;;-4.31;87.71;98770.31;5017936;28;20132;-82
2021/12/05 05:20:32;;;;;;;31.70;17.60;;;;;;;-4.36;87.90;98770.75;5049389;28;20049;-83
2021/12/05 05:49:22;;;;;;;26.23;16.35;;;;;;;-4.18;87.80;98813.72;5059517;28;20048;-80
2021/12/05 05:51:52;;;;;;;31.42;17.98;;;;;;;-4.21;88.03;98808.75;5040013;28;20051;-81
2021/12/05 05:54:20;;;;;;;31.40;18.23;;;;;;;-4.15;88.14;98823.13;5010594;28;20504;-81
2021/12/05 05:56:55;;;;;;;35.55;18.65;;;;;;;-4.12;88.23;98817.53;5059189;28;20052;-83
2021/12/05 05:59:39;;;;;;;31.00;19.50;;;;;;;-4.15;88.44;98807.31;5041769;28;20057;-80
2021/12/05 06:04:36;;;;;;;38.03;20.08;;;;;;;-4.13;88.17;98800.06;5033098;28;20148;-81
2021/12/05 06:07:05;;;;;;;33.58;17.38;;;;;;;-4.04;88.42;98811.50;5039045;28;20049;-82
2021/12/05 06:09:33;;;;;;;29.63;17.92;;;;;;;-4.11;88.17;98797.28;5001008;28;20406;-82
2021/12/05 06:12:01;;;;;;;30.65;18.25;;;;;;;-4.10;88.24;98791.00;4995174;28;20531;-82
2021/12/05 06:14:30;;;;;;;28.23;17.30;;;;;;;-4.04;88.07;98814.94;5011586;28;20060;-82
2021/12/05 06:16:58;;;;;;;30.85;17.30;;;;;;;-4.08;88.14;98802.22;4994582;28;20077;-82
2021/12/05 06:19:25;;;;;;;39.08;21.00;;;;;;;-4.05;87.82;98815.94;5011218;28;20073;-82
2021/12/05 06:21:52;;;;;;;32.88;20.15;;;;;;;-4.05;87.84;98818.56;5010421;28;20528;-82
2021/12/05 06:24:22;;;;;;;32.25;20.33;;;;;;;-4.02;87.86;98834.06;5006700;28;20049;-83
2021/12/05 06:26:53;;;;;;;33.63;17.48;;;;;;;-3.97;87.67;98834.44;5010506;28;20093;-84
2021/12/05 06:29:22;;;;;;;27.67;17.30;;;;;;;-4.00;87.22;98828.63;5011754;28;20081;-82
2021/12/05 06:47:56;;;;;;;30.30;16.85;;;;;;;-3.97;87.37;98850.25;5038045;28;20180;-81
2021/12/05 06:50:24;;;;;;;33.78;18.17;;;;;;;-4.03;87.15;98847.41;5048354;28;20049;-83
2021/12/05 06:52:54;;;;;;;24.48;14.40;;;;;;;-4.03;87.19;98853.50;5031910;28;20569;-82
2021/12/05 06:55:24;;;;;;;29.27;16.20;;;;;;;-4.02;86.92;98852.53;5022983;28;20056;-83
2021/12/05 06:57:56;;;;;;;;;;;;;;;-4.02;86.80;98864.91;5035697;28;20144;-81
2021/12/05 07:00:31;;;;;;;29.52;16.25;;;;;;;-4.04;86.92;98866.84;5038657;28;20402;-82
2021/12/05 07:03:01;;;;;;;29.63;17.63;;;;;;;-4.09;86.98;98848.03;5054477;28;20176;-81
2021/12/05 07:05:41;;;;;;;31.10;17.00;;;;;;;-4.01;86.75;98862.09;5049145;28;20146;-81
2021/12/05 07:08:10;;;;;;;34.45;18.55;;;;;;;-3.90;86.80;98873.34;5049238;28;20053;-83
2021/12/05 07:10:47;;;;;;;28.83;15.80;;;;;;;-3.91;86.82;98877.81;5031444;28;20336;-83
2021/12/05 07:15:55;;;;;;;27.25;13.55;;;;;;;-3.92;86.53;98876.16;5052769;28;20063;-82
2021/12/05 07:26:14;;;;;;;26.33;15.25;;;;;;;-3.82;86.47;98868.97;5047702;28;20076;-81
2021/12/05 07:42:38;;;;;;;28.55;16.52;;;;;;;-3.56;85.79;98882.13;5054854;28;20049;-81
2021/12/05 07:45:07;;;;;;;28.38;16.65;;;;;;;-3.52;85.63;98877.34;5050693;28;20719;-83
2021/12/05 07:47:36;;;;;;;31.52;18.23;;;;;;;-3.51;85.29;98884.31;5032382;28;20053;-83
2021/12/05 07:50:08;;;;;;;29.70;17.42;;;;;;;-3.58;85.58;98873.53;5024344;28;20052;-80
2021/12/05 07:52:49;;;;;;;32.85;16.85;;;;;;;-3.43;85.83;98894.88;5050038;28;20175;-83
2021/12/05 07:55:32;;;;;;;28.17;16.60;;;;;;;-3.45;85.86;98885.47;5016929;28;20507;-80
2021/12/05 08:00:39;;;;;;;30.65;18.55;;;;;;;-3.44;86.05;98887.13;5043876;28;20057;-81
2021/12/05 08:14:31;;;;;;;35.22;18.90;;;;;;;-3.41;86.73;98886.81;5050514;28;20053;-82
2021/12/05 08:17:00;;;;;;;31.63;17.38;;;;;;;-3.41;86.89;98882.38;5029328;28;20053;-83
2021/12/05 08:19:27;;;;;;;29.10;15.75;;;;;;;-3.46;86.70;98875.91;5017143;28;20522;-82
2021/12/05 08:21:57;;;;;;;31.00;18.73;;;;;;;-3.39;86.50;98877.75;5049890;28;20399;-81
2021/12/05 08:24:30;;;;;;;38.92;19.85;;;;;;;-3.31;86.83;98880.44;5048183;28;20052;-81
2021/12/05 08:26:57;;;;;;;30.50;20.23;;;;;;;-3.32;86.75;98873.50;5046951;28;20051;-81
2021/12/05 08:29:42;;;;;;;34.47;19.63;;;;;;;-3.30;86.72;98886.53;5057419;28;20079;-82
2021/12/05 08:32:24;;;;;;;31.92;19.60;;;;;;;-3.21;86.73;98879.50;5059014;28;20056;-82
2021/12/05 08:43:23;;;;;;;31.27;17.85;;;;;;;-3.18;85.99;98879.97;5047627;28;20103;-82
2021/12/05 10:11:25;;;;;;;25.23;13.48;;;;;;;-2.55;84.53;98906.91;5040705;28;20080;-84
2021/12/05 10:14:18;;;;;;;23.92;14.23;;;;;;;-2.55;84.25;98907.72;5053607;28;20087;-86
2021/12/05 10:17:00;;;;;;;28.15;13.93;;;;;;;-2.62;84.22;98902.25;5052430;28;20060;-84
2021/12/05 10:34:44;;;;;;;23.52;13.82;;;;;;;-2.59;84.71;98913.47;5045219;28;20053;-80
2021/12/05 10:37:17;;;;;;;24.65;14.40;;;;;;;-2.52;84.77;98920.59;5055912;28;20055;-83
2021/12/05 10:39:46;;;;;;;25.52;14.77;;;;;;;-2.49;84.64;98912.34;5055501;28;20053;-81
2021/12/05 10:42:42;;;;;;;28.92;14.75;;;;;;;-2.53;84.65;98913.66;5035534;28;20079;-81
2021/12/05 10:45:30;;;;;;;25.92;13.40;;;;;;;-2.50;84.75;98915.16;5034897;28;20538;-81
2021/12/05 10:48:00;;;;;;;26.42;16.77;;;;;;;-2.42;84.84;98915.16;5052737;28;20049;-81
2021/12/05 10:50:39;;;;;;;26.60;16.88;;;;;;;-2.32;84.64;98917.66;5065324;28;20076;-82
2021/12/05 10:53:27;;;;;;;19.02;11.32;;;;;;;-2.33;84.08;98918.63;5055879;28;20059;-82
2021/12/05 10:56:07;;;;;;;25.63;14.30;;;;;;;-2.34;84.01;98923.09;5052568;28;20045;-82
2021/12/05 10:58:49;;;;;;;20.75;12.60;;;;;;;-2.35;83.61;98921.47;5051860;28;20049;-82
2021/12/05 11:01:30;;;;;;;21.83;12.32;;;;;;;-2.34;83.50;98915.16;5040055;28;20072;-82
2021/12/05 11:04:18;;;;;;;16.63;10.55;;;;;;;-2.37;83.13;98922.59;5034486;28;20140;-83
2021/12/05 11:06:50;;;;;;;19.27;12.52;;;;;;;-2.39;83.42;98928.06;5050986;28;20554;-83
2021/12/05 11:09:20;;;;;;;19.63;12.15;;;;;;;-2.43;83.63;98932.84;5039906;28;20418;-82
2021/12/05 11:12:03;;;;;;;19.63;10.93;;;;;;;-2.55;83.98;98917.47;5069031;28;20407;-83
2021/12/05 11:14:32;;;;;;;20.30;13.23;;;;;;;-2.58;84.28;98920.41;5077080;28;20049;-82
2021/12/05 11:17:02;;;;;;;22.23;13.68;;;;;;;-2.65;84.24;98928.19;5054958;28;20126;-81
2021/12/05 11:19:59;;;;;;;21.17;13.77;;;;;;;-2.62;84.79;98939.25;5067578;28;20051;-82
2021/12/05 11:22:36;;;;;;;21.10;12.73;;;;;;;-2.69;85.07;98935.59;4968054;28;20055;-82
2021/12/05 11:25:11;;;;;;;26.48;15.20;;;;;;;-2.70;85.00;98936.59;4990515;28;20054;-81
2021/12/05 11:27:43;;;;;;;21.30;13.50;;;;;;;-2.73;85.29;98936.09;4990302;28;20112;-81
2021/12/05 11:30:15;;;;;;;23.98;15.07;;;;;;;-2.78;85.58;98936.56;4984554;28;20051;-82
2021/12/05 11:32:49;;;;;;;23.67;13.77;;;;;;;-2.70;85.85;98935.75;4980869;28;20117;-82
2021/12/05 11:35:27;;;;;;;29.27;15.05;;;;;;;-2.71;85.57;98934.94;4966191;28;20042;-81
2021/12/05 11:38:23;;;;;;;27.33;13.10;;;;;;;-2.70;85.39;98941.88;4991558;28;20054;-83
2021/12/05 11:41:22;;;;;;;25.63;14.95;;;;;;;-2.68;85.48;98947.81;4928781;29;20059;-82
2021/12/05 11:43:56;;;;;;;20.98;11.85;;;;;;;-2.74;85.38;98948.44;4882910;29;20650;-83
2021/12/05 11:46:32;;;;;;;23.83;14.13;;;;;;;-2.84;85.64;98939.84;4887987;29;20539;-83
2021/12/05 11:49:08;;;;;;;23.08;13.75;;;;;;;-2.81;85.69;98946.59;4901435;29;20120;-83
2021/12/05 11:51:44;;;;;;;27.15;16.15;;;;;;;-2.92;85.81;98934.53;4897305;29;20060;-83
2021/12/05 11:54:17;;;;;;;28.35;17.35;;;;;;;-2.85;85.78;98954.03;4883324;29;20135;-85
2021/12/05 11:57:11;;;;;;;24.27;13.35;;;;;;;-2.86;85.80;98947.09;4893930;29;20071;-82
2021/12/05 11:59:58;;;;;;;27.70;16.07;;;;;;;-2.83;85.62;98949.44;4912856;29;20081;-82
2021/12/05 12:02:34;;;;;;;21.52;11.90;;;;;;;-2.87;85.61;98948.09;4930283;29;20062;-83
2021/12/05 12:05:13;;;;;;;28.27;16.25;;;;;;;-2.98;85.81;98943.09;4931271;29;20047;-82
2021/12/05 12:07:45;;;;;;;31.02;16.80;;;;;;;-2.87;85.90;98951.53;4931941;29;20154;-81
2021/12/05 12:10:36;;;;;;;27.90;16.40;;;;;;;-2.95;86.14;98937.50;4916258;29;20056;-81
2021/12/05 12:13:15;;;;;;;25.25;15.52;;;;;;;-2.89;86.18;98942.94;4933551;29;20495;-82
2021/12/05 12:15:43;;;;;;;24.10;11.60;;;;;;;-2.76;86.00;98955.72;4931747;29;20094;-82
2021/12/05 12:18:24;;;;;;;33.20;16.38;;;;;;;-2.82;85.91;98953.72;4980588;28;20047;-81
2021/12/05 12:20:52;;;;;;;28.17;15.30;;;;;;;-2.86;86.24;98947.94;5020109;28;20420;-81
2021/12/05 12:23:21;;;;;;;31.98;16.05;;;;;;;-2.75;86.37;98964.47;5031874;28;20057;-81
2021/12/05 12:25:54;;;;;;;30.05;16.75;;;;;;;-2.84;86.48;98950.41;5059620;28;20052;-81
2021/12/05 12:28:24;;;;;;;38.88;22.17;;;;;;;-2.77;86.40;98966.44;5031793;28;20045;-83
2021/12/05 12:31:09;;;;;;;47.25;25.27;;;;;;;-2.78;86.78;98960.34;5032127;28;20060;-81
2021/12/05 12:33:42;;;;;;;42.85;24.17;;;;;;;-2.92;87.10;98953.84;5017341;28;20057;-80
2021/12/05 12:36:10;;;;;;;31.88;19.83;;;;;;;-2.90;86.98;98957.16;5035199;28;20050;-80
2021/12/05 12:38:43;;;;;;;28.35;17.83;;;;;;;-2.82;87.43;98969.56;5033578;28;20053;-82
2021/12/05 12:41:20;;;;;;;30.30;17.02;;;;;;;-2.84;87.31;98960.97;5034796;28;20144;-81
2021/12/05 12:44:03;;;;;;;24.80;14.85;;;;;;;-2.87;87.43;98972.69;5001349;28;20075;-82
2021/12/05 12:46:54;;;;;;;32.85;18.83;;;;;;;-2.87;87.51;98956.81;5049961;28;20144;-81
2021/12/05 12:49:23;;;;;;;42.60;22.15;;;;;;;-2.83;87.52;98968.75;5035234;28;20049;-81
2021/12/05 12:52:02;;;;;;;31.80;18.13;;;;;;;-2.86;87.65;98962.94;5035116;28;20045;-80
2021/12/05 12:54:44;;;;;;;34.25;20.33;;;;;;;-2.93;87.93;98959.28;5034981;28;20055;-82
2021/12/05 12:57:14;;;;;;;37.28;20.98;;;;;;;-2.97;88.11;98971.16;5034824;28;20415;-81
2021/12/05 13:00:00;;;;;;;33.85;19.83;;;;;;;-2.95;88.35;98974.47;5036241;28;20056;-80
2021/12/05 13:02:50;;;;;;;33.17;17.42;;;;;;;-2.94;88.25;98981.38;5035680;28;20052;-81
2021/12/05 13:11:11;;;;;;;34.40;17.50;;;;;;;-2.86;88.25;98981.41;5034548;28;20069;-82
2021/12/05 13:13:40;;;;;;;32.28;19.13;;;;;;;-2.85;88.38;98980.44;5016238;28;20068;-81
2021/12/05 13:16:26;;;;;;;35.13;18.60;;;;;;;-2.89;88.22;98987.84;5034194;28;20144;-81
2021/12/05 13:19:14;;;;;;;36.25;17.92;;;;;;;-2.97;88.34;98984.34;5016779;28;20049;-80
2021/12/05 13:21:43;;;;;;;33.50;17.33;;;;;;;-2.95;88.36;98988.50;5034571;28;20053;-81
2021/12/05 13:24:29;;;;;;;30.58;18.85;;;;;;;-2.93;88.68;98983.06;5016593;28;20045;-81
2021/12/05 13:27:02;;;;;;;30.17;17.88;;;;;;;-2.96;88.65;98993.91;5034411;28;20058;-81
2021/12/05 13:29:36;;;;;;;30.33;16.75;;;;;;;-3.05;88.73;98991.25;5016693;28;20049;-82
2021/12/05 13:32:11;;;;;;;25.85;15.88;;;;;;;-2.97;88.57;98993.09;5034658;28;20104;-82
2021/12/05 13:34:41;;;;;;;27.67;17.40;;;;;;;-2.99;88.70;98996.88;5050991;28;20499;-82
2021/12/05 13:37:09;;;;;;;28.02;17.00;;;;;;;-3.01;88.50;99002.34;5017142;28;20431;-82
2021/12/05 13:39:48;;;;;;;33.67;18.08;;;;;;;-3.08;88.66;99002.13;5033778;28;20122;-81
2021/12/05 13:42:46;;;;;;;30.13;16.98;;;;;;;-3.08;88.57;98998.66;5033602;28;20068;-82
2021/12/05 13:45:13;;;;;;;28.83;15.60;;;;;;;-3.02;88.82;99007.78;5034284;28;20116;-81
2021/12/05 13:47:44;;;;;;;31.23;18.23;;;;;;;-3.02;88.71;99005.94;5033484;28;20524;-81
2021/12/05 13:50:23;;;;;;;30.10;17.40;;;;;;;-2.96;88.80;99015.91;5033781;28;20045;-82
2021/12/05 13:53:03;;;;;;;30.05;17.30;;;;;;;-2.95;88.56;99017.53;5033125;28;20049;-82
2021/12/05 13:55:39;;;;;;;38.13;17.52;;;;;;;-2.90;88.77;99025.00;5015488;28;20463;-82
2021/12/05 13:58:28;;;;;;;32.83;17.85;;;;;;;-2.95;88.61;99016.72;5034193;28;20064;-81
2021/12/05 14:00:59;;;;;;;28.80;16.90;;;;;;;-2.90;88.55;99025.81;5058913;28;20512;-82
2021/12/05 14:04:08;;;;;;;33.08;17.70;;;;;;;-2.91;88.02;99028.59;5033601;28;20424;-83
2021/12/05 14:06:54;;;;;;;34.00;17.70;;;;;;;-2.94;88.16;99028.94;5037382;28;20045;-82
2021/12/05 14:09:28;;;;;;;29.30;16.35;;;;;;;-3.05;87.95;99025.56;5031934;28;20057;-82
2021/12/05 14:12:24;;;;;;;27.42;13.75;;;;;;;-3.01;87.59;99038.47;5022552;28;20050;-83
2021/12/05 14:14:53;;;;;;;30.05;16.67;;;;;;;-3.01;87.55;99035.81;5041493;28;20527;-84
2021/12/05 14:17:42;;;;;;;30.55;16.45;;;;;;;-3.05;87.50;99030.84;5025717;28;20060;-82
2021/12/05 14:20:17;;;;;;;27.42;15.30;;;;;;;-3.03;87.61;99032.53;5037241;28;20051;-81
2021/12/05 14:22:47;;;;;;;25.50;15.60;;;;;;;-3.05;87.86;99032.66;5037266;28;20056;-87
2021/12/05 14:25:18;;;;;;;27.58;15.32;;;;;;;-3.08;87.61;99033.81;5045240;28;20041;-84
2021/12/05 14:27:48;;;;;;;26.88;15.32;;;;;;;-3.03;87.58;99030.72;5039229;28;20508;-83
2021/12/05 14:30:19;;;;;;;24.75;14.75;;;;;;;-3.01;87.60;99049.03;4656177;28;10000261;-87
2021/12/05 14:32:48;;;;;;;27.30;15.90;;;;;;;-3.00;87.60;99042.78;5042573;28;20423;-84
2021/12/05 14:35:23;;;;;;;26.10;14.40;;;;;;;-3.01;87.45;99031.38;5035395;28;20413;-84
2021/12/05 14:37:52;;;;;;;21.20;12.82;;;;;;;-3.00;86.86;99040.94;5013630;28;20725;-84
2021/12/05 14:40:21;;;;;;;22.08;12.77;;;;;;;-3.06;86.60;99034.50;5030550;28;20141;-85
2021/12/05 14:42:51;;;;;;;24.10;14.40;;;;;;;-3.05;86.63;99048.50;5017617;28;20079;-82
2021/12/05 14:45:24;;;;;;;21.30;12.50;;;;;;;-3.02;86.42;99052.66;5007802;28;20080;-84
2021/12/05 14:47:54;;;;;;;22.42;14.15;;;;;;;-3.13;86.29;99051.13;5003870;28;20045;-83
2021/12/05 14:50:35;;;;;;;26.45;14.70;;;;;;;-3.15;86.26;99050.44;5012938;28;20041;-83
2021/12/05 14:53:05;;;;;;;24.77;13.75;;;;;;;-3.09;86.52;99055.94;5029989;28;20109;-82
2021/12/05 14:55:34;;;;;;;31.75;16.67;;;;;;;-3.11;86.44;99057.91;5048037;28;20092;-82
2021/12/05 14:58:05;;;;;;;20.02;10.18;;;;;;;-3.12;86.15;99066.78;5048719;28;20044;-82
2021/12/05 15:00:41;;;;;;;30.75;17.70;;;;;;;-3.24;86.09;99049.56;5048087;28;20064;-83
2021/12/05 15:03:13;;;;;;;25.88;12.73;;;;;;;-3.22;86.26;99066.06;5044402;28;20164;-82
2021/12/05 15:05:45;;;;;;;32.17;18.27;;;;;;;-3.35;86.26;99045.34;5029397;28;20063;-83
2021/12/05 15:08:17;;;;;;;23.90;13.07;;;;;;;-3.21;86.63;99062.44;5035735;28;20084;-82
2021/12/05 15:10:46;;;;;;;23.52;13.73;;;;;;;-3.22;86.65;99073.97;5020223;28;20072;-83
2021/12/05 15:13:17;;;;;;;23.42;14.05;;;;;;;-3.25;86.81;99073.47;5021612;28;20164;-83
2021/12/05 15:15:45;;;;;;;25.25;14.07;;;;;;;-3.34;86.74;99069.94;5022998;28;20041;-82
2021/12/05 15:18:24;;;;;;;31.85;16.90;;;;;;;-3.46;86.77;99065.91;5031545;28;20053;-83
2021/12/05 15:20:52;;;;;;;22.55;13.00;;;;;;;-3.36;86.95;99077.19;5026184;28;20060;-85
2021/12/05 15:23:19;;;;;;;27.85;15.23;;;;;;;-3.40;87.13;99086.38;5014550;28;20562;-84
2021/12/05 15:25:47;;;;;;;18.20;9.68;;;;;;;-3.38;87.03;99079.16;4994706;28;20531;-84
2021/12/05 15:28:17;;;;;;;21.48;11.93;;;;;;;-3.40;87.12;99086.38;5032368;28;20052;-84
2021/12/05 15:30:47;;;;;;;31.40;17.75;;;;;;;-3.40;86.82;99086.38;5038135;28;20049;-84
2021/12/05 15:33:20;;;;;;;31.85;16.80;;;;;;;-3.42;87.10;99081.25;5038000;28;20088;-83
2021/12/05 15:35:49;;;;;;;;;;;;;;;-3.41;87.36;99079.47;5014767;28;20542;-85
2021/12/05 15:38:24;;;;;;;27.98;15.38;;;;;;;-3.40;87.48;99078.47;5047959;28;19925;-82
2021/12/05 15:40:55;;;;;;;27.23;16.27;;;;;;;-3.42;87.31;99078.59;5038330;28;20140;-84
2021/12/05 15:43:26;;;;;;;26.13;15.82;;;;;;;-3.36;87.19;99087.75;5036734;28;20061;-84
2021/12/05 15:45:56;;;;;;;27.33;14.88;;;;;;;-3.39;87.09;99093.31;5013682;28;20073;-83
2021/12/05 15:48:32;;;;;;;30.23;16.20;;;;;;;-3.42;87.11;99089.16;5030383;28;20143;-82
2021/12/05 15:51:02;;;;;;;30.33;14.50;;;;;;;-3.39;87.03;99098.59;5047275;28;20065;-81
2021/12/05 15:53:35;;;;;;;27.38;16.75;;;;;;;-3.40;87.19;99096.94;5027522;28;20565;-82
2021/12/05 15:56:06;;;;;;;27.20;17.25;;;;;;;-3.47;87.01;99087.97;5037914;28;20055;-83
2021/12/05 15:58:46;;;;;;;33.50;17.42;;;;;;;-3.43;87.24;99086.69;5040629;28;20132;-82
2021/12/05 16:01:18;;;;;;;31.65;18.58;;;;;;;-3.37;87.12;99096.63;5019496;28;20141;-83
2021/12/05 16:03:58;;;;;;;46.33;19.90;;;;;;;-3.38;87.25;99094.97;5039348;28;20473;-83
2021/12/05 16:06:35;;;;;;;36.45;18.50;;;;;;;-3.41;87.15;99092.66;5045281;28;20053;-83
2021/12/05 16:09:18;;;;;;;33.92;16.38;;;;;;;-3.40;87.17;99096.94;5042415;28;20048;-83
2021/12/05 16:11:48;;;;;;;31.45;17.75;;;;;;;-3.50;87.24;99086.47;5040390;28;20049;-84
2021/12/05 16:14:33;;;;;;;26.25;13.02;;;;;;;-3.44;87.31;99095.56;5022489;28;20071;-82
2021/12/05 16:17:00;;;;;;;30.25;18.17;;;;;;;-3.52;87.41;99088.44;5043771;28;20041;-84
2021/12/05 16:19:28;;;;;;;29.17;15.88;;;;;;;-3.38;87.32;99106.38;5041775;28;20046;-83
2021/12/05 16:22:15;;;;;;;33.67;18.45;;;;;;;-3.37;87.21;99108.00;5042786;28;20079;-84
2021/12/05 16:24:43;;;;;;;34.83;17.65;;;;;;;-3.36;87.39;99120.25;5040062;28;20071;-85
2021/12/05 16:27:10;;;;;;;31.77;16.50;;;;;;;-3.39;87.39;99109.16;5037581;28;20050;-84
2021/12/05 16:29:37;;;;;;;29.92;15.82;;;;;;;-3.34;87.41;99120.06;5038476;28;20060;-83
2021/12/05 16:32:05;;;;;;;30.17;19.02;;;;;;;-3.36;87.47;99119.41;5041875;28;20049;-86
2021/12/05 16:34:33;;;;;;;28.63;18.05;;;;;;;-3.43;87.42;99100.72;5012780;28;20044;-85
2021/12/05 16:37:07;;;;;;;34.22;18.70;;;;;;;-3.31;87.58;99125.06;5000595;28;20044;-89
2021/12/05 16:39:57;;;;;;;33.22;19.02;;;;;;;-3.30;87.59;99129.34;5040768;28;20063;-90
2021/12/05 16:42:25;;;;;;;24.35;12.93;;;;;;;-3.38;87.23;99127.47;5038674;28;20053;-84
2021/12/05 16:44:57;;;;;;;30.08;15.55;;;;;;;-3.42;87.24;99136.66;5020811;28;20155;-86
2021/12/05 16:47:27;;;;;;;32.63;16.63;;;;;;;-3.49;86.87;99138.28;5007376;28;20045;-86
2021/12/05 16:49:56;;;;;;;26.90;14.82;;;;;;;-3.45;86.98;99147.53;5019023;28;20061;-86
2021/12/05 16:52:31;;;;;;;27.75;13.10;;;;;;;-3.51;86.94;99142.88;5043340;28;20053;-85
2021/12/05 16:55:21;;;;;;;27.65;15.02;;;;;;;-3.55;86.86;99142.31;5039361;28;20076;-86
2021/12/05 16:58:06;;;;;;;27.92;13.65;;;;;;;-3.57;87.07;99136.41;5019628;28;20061;-84
2021/12/05 17:00:35;;;;;;;;;;;;;;;-3.54;86.69;99146.63;5024718;28;20053;-84
2021/12/05 17:03:05;;;;;;;32.78;16.75;;;;;;;-3.57;86.70;99148.72;5046626;28;19925;-84
2021/12/05 17:05:42;;;;;;;36.55;19.48;;;;;;;-3.51;86.88;99158.69;5043871;28;20112;-85
2021/12/05 17:08:18;;;;;;;33.83;19.15;;;;;;;-3.49;86.73;99154.94;5053494;28;20519;-90